Time;durP1;ratioP1;P1;durP2;ratioP2;P2;SDS_P1;SDS_P2;PMS_P1;PMS_P2;Temp;Humidity;BMP_temperature;BMP_pressure;BME280_temperature;BME280_humidity;BME280_pressure;Samples;Min_cycle;Max_cycle;Signal;HPM_P1;HPM_P2
2021/03/30 07:12:50;;;;;;;9.83;3.17;;;9.80;49.40;;;10.02;41.30;99085.09;1498977;26;20333;-34
2021/03/30 07:15:21;;;;;;;12.48;4.43;;;9.90;48.50;;;10.11;41.27;99080.84;5039408;28;20055;-34
2021/03/30 07:18:33;;;;;;;14.23;4.13;;;10.00;48.10;;;10.19;41.10;99082.88;5026064;28;20053;-34
2021/03/30 07:21:09;;;;;;;9.93;3.87;;;10.10;48.40;;;10.29;41.28;99085.66;4946244;28;20375;-34
2021/03/30 07:23:41;;;;;;;16.60;4.47;;;10.20;48.30;;;10.36;41.60;99089.53;5037907;28;20053;-34
2021/03/30 07:26:18;;;;;;;15.30;4.30;;;10.30;48.40;;;10.44;42.06;99090.59;5046347;28;20063;-34
2021/03/30 07:29:11;;;;;;;19.93;4.70;;;10.40;49.10;;;10.56;41.70;99090.56;5014154;28;20044;-34
2021/03/30 07:32:06;;;;;;;11.97;5.07;;;10.50;49.60;;;10.63;41.81;99084.63;5045357;28;20084;-34
2021/03/30 07:35:10;;;;;;;;;;;10.60;48.40;;;10.70;41.16;99087.63;5047217;28;20364;-33
2021/03/30 07:38:06;;;;;;;17.43;4.43;;;10.70;48.60;;;10.80;40.88;99080.56;5046070;28;19975;-34
2021/03/30 07:40:41;;;;;;;13.03;3.77;;;10.80;47.70;;;10.89;40.41;99088.75;5045537;28;20049;-33
2021/03/30 07:43:30;;;;;;;11.33;4.40;;;10.90;47.20;;;10.98;40.51;99083.50;5053399;28;20048;-33
2021/03/30 07:46:03;;;;;;;11.40;3.47;;;11.00;47.00;;;11.08;40.91;99088.06;5048330;28;20127;-33
2021/03/30 07:48:35;;;;;;;14.13;4.30;;;11.10;47.20;;;11.15;40.94;99086.56;5044204;28;20369;-33
2021/03/30 07:51:15;;;;;;;12.33;5.87;;;11.20;47.10;;;11.20;41.53;99079.84;5029592;28;20056;-33
2021/03/30 07:53:44;;;;;;;11.30;5.50;;;11.20;48.70;;;11.28;42.46;99092.53;5046109;28;20059;-33
2021/03/30 07:56:26;;;;;;;10.73;4.47;;;11.30;49.30;;;11.35;42.20;99093.72;5047685;28;20047;-33
2021/03/30 07:58:58;;;;;;;18.30;7.87;;;11.40;49.90;;;11.40;42.79;99096.00;5049338;28;20057;-33
2021/03/30 08:01:30;;;;;;;8.60;4.90;;;11.50;49.70;;;11.45;42.67;99091.09;5028976;28;20362;-35
2021/03/30 08:04:01;;;;;;;19.50;7.03;;;11.50;49.70;;;11.50;42.79;99096.06;5030155;28;20495;-35
2021/03/30 08:06:57;;;;;;;8.83;6.40;;;11.50;50.50;;;11.60;44.19;99092.44;5029525;28;20052;-35
2021/03/30 08:10:21;;;;;;;23.38;7.75;;;11.70;53.40;;;11.77;44.01;99092.84;5064849;27;20357;-34
2021/03/30 08:12:50;;;;;;;16.20;6.70;;;12.00;52.60;;;11.88;43.64;99090.03;5046764;28;20057;-34
2021/03/30 08:15:43;;;;;;;13.60;7.60;;;12.00;50.80;;;11.99;43.36;99087.31;5044034;28;20071;-33
2021/03/30 08:18:12;;;;;;;7.45;5.22;;;12.20;52.00;;;12.08;43.64;99079.47;5042024;28;20242;-34
2021/03/30 08:21:00;;;;;;;5.70;4.70;;;12.20;50.40;;;12.18;43.37;99086.53;5040851;28;20057;-37
2021/03/30 08:23:29;;;;;;;8.60;5.20;;;12.40;51.40;;;12.30;43.10;99087.28;5041056;28;20451;-40
2021/03/30 08:26:18;;;;;;;12.10;5.18;;;12.50;50.20;;;12.41;43.52;99089.84;5043534;28;20053;-37
2021/03/30 08:28:49;;;;;;;7.45;5.00;;;12.60;50.30;;;12.51;43.09;99094.34;5042761;28;20060;-41
2021/03/30 08:31:20;;;;;;;13.90;5.07;;;12.80;49.80;;;12.65;44.23;99090.44;5043025;28;20346;-41
2021/03/30 08:33:50;;;;;;;10.25;5.47;;;12.90;52.00;;;12.71;43.20;99101.41;5042971;28;20342;-41
2021/03/30 08:36:32;;;;;;;10.55;5.20;;;13.00;50.20;;;12.76;43.08;99095.66;5040584;28;20063;-39
2021/03/30 08:39:10;;;;;;;9.68;4.88;;;13.10;49.90;;;12.82;42.94;99103.09;5043423;28;20045;-36
2021/03/30 08:41:43;;;;;;;9.55;4.95;;;13.10;49.60;;;12.90;43.00;99108.59;5041587;28;20053;-36
2021/03/30 08:44:21;;;;;;;7.32;4.80;;;13.20;49.10;;;12.96;42.64;99102.66;5043352;28;20057;-43
2021/03/30 08:46:59;;;;;;;11.32;5.90;;;13.40;48.50;;;13.14;42.21;99099.28;5042067;28;20295;-43
2021/03/30 08:49:44;;;;;;;17.23;7.05;;;13.60;48.30;;;13.44;42.28;99105.50;5042124;28;20049;-33
2021/03/30 08:52:18;;;;;;;7.85;5.20;;;14.00;47.90;;;13.57;41.83;99108.66;5041658;28;20268;-41
2021/03/30 08:54:58;;;;;;;9.10;5.32;;;14.10;47.00;;;13.63;41.51;99105.44;5042366;28;20055;-40
2021/03/30 08:57:35;;;;;;;12.15;5.85;;;14.10;46.80;;;13.66;41.57;99099.78;5040551;28;20051;-40
2021/03/30 09:00:08;;;;;;;9.98;6.55;;;14.10;47.20;;;13.71;41.61;99100.19;5041144;28;20063;-39
2021/03/30 09:02:37;;;;;;;14.48;7.85;;;14.10;47.30;;;13.75;41.12;99093.56;5041418;28;20443;-40
2021/03/30 09:05:19;;;;;;;7.65;5.40;;;14.20;46.90;;;13.84;41.13;99097.22;5039602;28;20048;-41
2021/03/30 09:07:48;;;;;;;9.25;7.20;;;14.20;46.70;;;13.98;41.22;99106.59;5042097;28;20262;-42
2021/03/30 09:10:17;;;;;;;7.18;5.32;;;14.40;46.80;;;14.10;40.46;99101.88;5040224;28;20041;-42
2021/03/30 09:12:46;;;;;;;7.97;5.00;;;14.70;45.80;;;14.24;40.56;99100.53;5040746;28;20059;-42
2021/03/30 09:15:16;;;;;;;9.68;5.63;;;14.80;46.00;;;14.29;40.40;99103.63;5039640;28;20053;-42
2021/03/30 09:17:59;;;;;;;13.90;5.43;;;14.70;45.70;;;14.35;40.33;99097.66;5041100;28;20051;-41
2021/03/30 09:20:35;;;;;;;8.82;6.65;;;14.80;46.20;;;14.40;40.24;99089.16;5033069;28;20327;-46
2021/03/30 09:23:24;;;;;;;11.57;5.65;;;14.80;45.70;;;14.45;40.14;99089.56;5026146;28;20057;-43
2021/03/30 09:25:57;;;;;;;10.82;5.78;;;14.80;45.60;;;14.52;40.24;99093.31;5026573;28;20053;-43
2021/03/30 09:28:25;;;;;;;9.55;5.88;;;14.90;46.20;;;14.56;40.21;99084.88;5025918;28;20057;-43
2021/03/30 09:30:53;;;;;;;9.15;5.72;;;14.90;45.90;;;14.63;40.16;99077.06;5026416;28;20367;-44
2021/03/30 09:33:21;;;;;;;13.13;5.93;;;15.00;45.80;;;14.72;40.09;99084.19;5026992;28;20059;-43
2021/03/30 09:35:49;;;;;;;9.63;5.43;;;15.10;45.70;;;14.79;40.01;99086.25;5025541;28;20049;-45
2021/03/30 09:38:17;;;;;;;11.43;6.28;;;15.20;45.70;;;14.88;39.99;99079.97;5026534;28;20045;-45
2021/03/30 09:40:45;;;;;;;13.55;6.68;;;15.30;45.90;;;14.94;39.53;99077.50;5026776;28;20041;-43
2021/03/30 09:43:18;;;;;;;8.70;5.78;;;15.30;45.30;;;15.02;38.35;99078.59;5027658;28;20375;-44
2021/03/30 09:45:47;;;;;;;;;;;15.40;44.30;;;15.07;38.59;99081.66;5025798;28;20053;-44
2021/03/30 09:48:18;;;;;;;9.38;5.85;;;15.40;41.90;;;15.18;39.07;99080.56;5026645;28;19924;-38
2021/03/30 09:50:51;;;;;;;30.95;12.43;;;15.50;44.80;;;15.21;40.80;99082.94;5027340;28;20460;-37
2021/03/30 09:53:20;;;;;;;13.60;5.73;;;15.50;54.60;;;15.22;39.50;99081.91;5026120;28;20477;-36
2021/03/30 09:55:49;;;;;;;11.18;6.97;;;15.40;46.10;;;15.26;38.82;99077.97;5027719;28;20051;-38
2021/03/30 09:58:21;;;;;;;8.30;5.32;;;15.40;44.80;;;15.31;38.47;99079.16;5027448;28;20084;-36
2021/03/30 10:00:55;;;;;;;9.63;6.10;;;15.50;44.30;;;15.38;38.15;99070.50;5026286;28;20063;-35
2021/03/30 10:03:24;;;;;;;11.52;6.57;;;15.60;44.20;;;15.44;38.64;99065.31;5028190;28;20049;-37
2021/03/30 10:05:52;;;;;;;30.58;9.23;;;15.70;44.80;;;15.52;37.75;99068.06;5025019;28;20263;-36
2021/03/30 10:08:29;;;;;;;27.08;7.25;;;15.80;43.40;;;15.56;37.82;99063.22;5025845;28;20061;-39
2021/03/30 10:11:00;;;;;;;13.15;5.57;;;15.80;43.20;;;15.60;37.58;99063.75;5028568;28;20053;-37
2021/03/30 10:13:32;;;;;;;11.90;6.10;;;15.80;42.90;;;15.68;37.20;99064.66;5029212;28;20057;-37
2021/03/30 10:16:03;;;;;;;9.63;5.50;;;15.90;42.40;;;15.73;37.16;99053.47;5026923;28;20045;-37
2021/03/30 10:18:32;;;;;;;9.40;5.72;;;15.90;42.40;;;15.77;36.91;99053.97;5032464;28;20049;-34
2021/03/30 10:21:12;;;;;;;11.63;5.90;;;16.00;41.90;;;15.80;36.20;99051.81;5032139;28;20045;-34
2021/03/30 10:23:44;;;;;;;11.05;5.47;;;16.10;40.80;;;15.90;36.50;99049.84;5029256;28;20335;-34
2021/03/30 10:26:27;;;;;;;11.80;5.47;;;16.10;41.70;;;15.96;36.30;99050.22;5024626;28;20049;-34
2021/03/30 10:29:03;;;;;;;11.82;6.47;;;16.20;41.30;;;16.05;36.14;99052.78;5025479;28;20045;-34
2021/03/30 10:34:34;;;;;;;9.77;5.88;;;16.40;41.50;;;16.22;36.44;99048.28;5025567;28;20061;-34
2021/03/30 10:37:10;;;;;;;9.02;6.63;;;16.50;41.50;;;16.27;35.94;99042.44;5010152;28;20641;-34
2021/03/30 10:39:43;;;;;;;12.88;6.57;;;16.60;40.50;;;16.31;35.77;99044.63;5025502;28;20070;-34
2021/03/30 10:42:18;;;;;;;9.85;6.63;;;16.60;40.90;;;16.37;35.76;99043.13;5027508;28;20049;-34
2021/03/30 10:44:56;;;;;;;11.20;6.63;;;16.70;40.50;;;16.41;35.35;99041.78;5027629;28;20061;-34
2021/03/30 10:47:36;;;;;;;9.80;6.75;;;16.70;40.60;;;16.52;35.19;99040.66;5029386;28;20063;-34
2021/03/30 10:50:14;;;;;;;12.10;6.93;;;16.80;39.90;;;16.57;34.93;99030.22;5029968;28;20060;-33
2021/03/30 10:52:43;;;;;;;10.60;6.53;;;16.90;39.70;;;16.62;35.04;99022.50;5026287;28;20052;-33
2021/03/30 10:55:17;;;;;;;9.18;6.40;;;17.00;39.80;;;16.70;34.70;99025.19;5024902;28;20049;-33
2021/03/30 10:57:48;;;;;;;10.10;5.88;;;17.10;39.20;;;16.74;34.19;99021.16;5024775;28;20052;-34
2021/03/30 11:00:17;;;;;;;7.88;5.60;;;17.10;38.50;;;16.81;33.97;99017.78;5040399;28;20053;-34
2021/03/30 11:02:45;;;;;;;9.73;5.97;;;17.10;38.00;;;16.88;33.39;99026.91;5025086;28;20061;-34
2021/03/30 11:05:15;;;;;;;11.10;5.55;;;17.20;37.70;;;16.95;33.28;99019.88;5025187;28;20064;-34
2021/03/30 11:07:43;;;;;;;9.70;5.95;;;17.30;37.90;;;17.00;33.25;99019.34;5026781;28;20067;-34
2021/03/30 11:10:11;;;;;;;10.80;6.57;;;17.40;37.50;;;17.03;32.72;99017.16;5025365;28;20037;-34
2021/03/30 11:12:40;;;;;;;12.05;5.95;;;17.40;37.10;;;17.09;32.23;99013.78;5025253;28;20262;-33
2021/03/30 11:15:09;;;;;;;9.60;5.93;;;17.40;36.60;;;17.21;32.20;99008.06;5025291;28;20059;-34
2021/03/30 11:17:37;;;;;;;11.68;6.38;;;17.50;36.20;;;17.27;32.45;99007.38;5026186;28;20049;-34
2021/03/30 11:20:07;;;;;;;10.40;6.47;;;17.60;36.50;;;17.34;32.17;99003.00;5024442;28;20364;-34
2021/03/30 11:22:34;;;;;;;7.97;5.95;;;17.70;36.50;;;17.42;32.10;98997.59;5025213;28;20257;-34
2021/03/30 11:25:04;;;;;;;9.95;5.53;;;17.80;36.10;;;17.54;31.93;99003.44;5024581;28;20359;-34
2021/03/30 11:27:34;;;;;;;11.88;6.22;;;17.90;36.00;;;17.59;31.66;98997.56;5024830;28;20063;-34
2021/03/30 11:32:53;;;;;;;9.40;5.50;;;18.20;35.70;;;17.79;31.74;98996.13;5027136;28;20060;-33
2021/03/30 11:35:23;;;;;;;8.13;5.35;;;18.20;35.70;;;17.86;31.49;98990.91;5025394;28;20063;-33
2021/03/30 11:40:18;;;;;;;7.60;5.18;;;18.30;35.00;;;17.96;30.60;98993.41;5024667;28;20558;-33
2021/03/30 11:42:46;;;;;;;9.93;4.93;;;18.40;34.30;;;18.02;30.25;98987.31;5024174;28;20238;-33
2021/03/30 11:45:14;;;;;;;8.13;5.20;;;18.50;34.20;;;18.08;30.17;98979.34;5024070;28;20064;-33
2021/03/30 11:47:42;;;;;;;5.70;4.93;;;18.50;33.90;;;18.16;30.16;98978.44;5025510;28;20053;-34
2021/03/30 11:50:10;;;;;;;7.18;4.15;;;18.60;34.00;;;18.21;29.86;98980.63;5025191;28;20354;-34
2021/03/30 11:52:41;;;;;;;8.52;5.18;;;18.60;33.60;;;18.27;28.96;98979.91;5025199;28;20043;-32
2021/03/30 11:55:11;;;;;;;6.88;4.97;;;18.70;33.10;;;18.33;28.97;98975.69;5025624;28;20061;-32
2021/03/30 11:57:43;;;;;;;8.65;5.88;;;18.90;32.50;;;18.38;28.95;98965.16;5025230;28;20266;-32
2021/03/30 12:00:11;;;;;;;6.95;4.05;;;18.90;32.20;;;18.45;29.26;98968.84;5023978;28;20608;-32
2021/03/30 12:02:52;;;;;;;7.68;4.35;;;19.00;32.60;;;18.53;29.50;98960.69;5019495;28;20045;-32
2021/03/30 12:05:20;;;;;;;6.75;4.15;;;19.00;33.10;;;18.63;29.10;98958.59;5023626;28;20057;-32
2021/03/30 12:07:48;;;;;;;9.60;4.68;;;19.10;32.60;;;18.70;28.65;98950.59;5024386;28;20057;-33
2021/03/30 12:10:21;;;;;;;7.75;5.45;;;19.20;31.90;;;18.77;28.34;98956.13;5024002;28;20255;-32
2021/03/30 12:12:49;;;;;;;7.38;4.90;;;19.40;31.60;;;18.84;28.09;98944.47;5025321;28;20046;-34
2021/03/30 12:15:17;;;;;;;7.00;5.00;;;19.40;31.40;;;18.96;27.69;98942.16;5023428;28;20041;-33
2021/03/30 12:17:45;;;;;;;6.43;4.25;;;19.50;31.00;;;19.07;27.57;98943.56;5026788;28;20061;-33
2021/03/30 12:20:17;;;;;;;7.68;4.63;;;19.60;30.60;;;19.17;28.01;98944.13;5024070;28;20050;-39
2021/03/30 12:22:44;;;;;;;7.78;4.68;;;19.70;31.30;;;19.35;27.62;98938.38;5024376;28;20067;-39
2021/03/30 12:25:12;;;;;;;7.25;5.38;;;20.00;31.00;;;19.55;27.19;98930.53;5024706;28;20464;-41
2021/03/30 12:27:40;;;;;;;6.70;3.80;;;20.30;30.10;;;19.65;27.18;98928.38;5021958;28;20398;-39
2021/03/30 12:30:09;;;;;;;5.03;3.88;;;20.40;30.00;;;19.73;26.76;98919.34;5023093;28;20049;-41
2021/03/30 12:32:38;;;;;;;8.25;4.57;;;20.50;29.70;;;19.82;26.60;98923.63;5024223;28;20415;-38
2021/03/30 12:35:07;;;;;;;6.05;3.70;;;20.60;29.70;;;19.92;26.88;98923.31;5023451;28;20369;-41
2021/03/30 12:37:34;;;;;;;9.10;4.22;;;20.60;29.90;;;20.01;26.60;98916.78;5023131;28;20063;-40
2021/03/30 12:40:03;;;;;;;8.10;4.15;;;20.70;29.70;;;20.10;26.05;98916.66;5025002;28;20239;-39
2021/03/30 12:42:30;;;;;;;6.13;4.35;;;20.80;29.20;;;20.16;25.78;98918.59;5024650;28;20347;-41
2021/03/30 12:44:57;;;;;;;5.00;4.03;;;20.80;29.00;;;20.21;25.36;98910.75;5022147;28;20067;-40
2021/03/30 12:47:25;;;;;;;6.43;4.88;;;20.90;28.90;;;20.28;25.65;98906.25;5024831;28;20065;-40
2021/03/30 12:49:52;;;;;;;8.65;4.60;;;21.00;29.10;;;20.35;26.30;98906.31;5022228;28;20038;-41
2021/03/30 12:52:20;;;;;;;8.23;4.05;;;21.00;29.30;;;20.48;25.86;98908.31;5024680;28;20394;-47
2021/03/30 12:54:48;;;;;;;7.47;3.83;;;21.20;29.20;;;20.65;25.48;98902.47;5021900;28;20121;-46
2021/03/30 12:57:15;;;;;;;5.70;3.65;;;21.40;28.80;;;20.80;24.68;98901.50;5027576;28;20045;-47
2021/03/30 12:59:43;;;;;;;4.32;3.50;;;21.50;28.40;;;20.91;24.59;98900.97;5027558;28;20060;-47
2021/03/30 13:02:12;;;;;;;5.93;4.53;;;21.70;28.00;;;20.97;24.45;98893.94;5027216;28;20064;-47
2021/03/30 13:04:44;;;;;;;4.55;3.42;;;21.70;27.80;;;21.13;24.54;98899.06;5026791;28;20049;-46
2021/03/30 13:07:12;;;;;;;6.78;4.30;;;21.80;27.90;;;21.22;23.44;98895.13;5029097;28;20061;-45
2021/03/30 13:09:40;;;;;;;7.20;4.13;;;22.00;27.10;;;21.30;22.96;98893.31;5028235;28;20075;-49
2021/03/30 13:12:08;;;;;;;4.85;3.42;;;22.00;26.90;;;21.41;24.03;98885.47;5028965;28;20045;-46
2021/03/30 13:14:37;;;;;;;6.05;4.22;;;22.10;28.00;;;21.55;23.09;98878.25;5028921;28;20049;-48
2021/03/30 13:17:04;;;;;;;7.05;3.50;;;22.30;26.80;;;21.70;23.12;98877.28;5027705;28;20396;-46
2021/03/30 13:19:32;;;;;;;8.55;3.78;;;22.40;26.90;;;21.80;22.72;98877.72;5024414;28;20346;-50
2021/03/30 13:22:11;;;;;;;5.38;3.60;;;22.50;26.70;;;21.88;22.33;98869.41;5025959;28;20054;-45
2021/03/30 13:24:40;;;;;;;6.32;3.83;;;22.60;26.20;;;21.80;20.97;98865.00;5042338;28;20059;-46
2021/03/30 13:27:19;;;;;;;4.88;3.45;;;22.60;25.30;;;21.84;20.72;98865.44;5058636;28;20045;-52
2021/03/30 13:29:49;;;;;;;3.28;2.92;;;22.60;24.50;;;21.86;20.62;98866.06;5041083;28;20056;-51
2021/03/30 13:32:18;;;;;;;5.57;3.22;;;22.60;24.90;;;22.00;20.37;98858.78;5027172;28;20057;-47
2021/03/30 13:34:48;;;;;;;7.95;2.40;;;22.70;24.80;;;22.14;19.45;98860.50;5025929;28;20045;-47
2021/03/30 13:37:18;;;;;;;6.28;3.78;;;22.80;23.80;;;22.29;20.45;98856.78;5026173;28;20348;-45
2021/03/30 13:39:46;;;;;;;5.35;3.38;;;23.00;24.80;;;22.38;20.37;98853.66;5027528;28;20059;-47
2021/03/30 13:42:14;;;;;;;8.13;3.60;;;23.10;24.20;;;22.44;19.46;98849.28;5026147;28;20045;-47
2021/03/30 13:44:42;;;;;;;4.40;3.33;;;23.30;23.90;;;22.56;19.86;98849.50;5026790;28;20041;-47
2021/03/30 13:47:10;;;;;;;4.15;2.80;;;23.30;23.90;;;22.59;19.14;98839.06;5027262;28;20063;-46
2021/03/30 13:49:40;;;;;;;3.42;2.70;;;23.40;23.40;;;22.65;18.69;98837.38;5027336;28;20242;-49
2021/03/30 13:52:08;;;;;;;5.43;2.97;;;23.50;22.90;;;22.69;19.17;98837.81;5026849;28;20057;-46
2021/03/30 13:54:35;;;;;;;4.55;3.05;;;23.50;23.20;;;22.75;17.87;98832.34;5025665;28;20350;-47
2021/03/30 13:57:04;;;;;;;3.25;2.60;;;23.60;22.20;;;22.83;18.39;98830.47;5027983;28;20339;-45
2021/03/30 13:59:32;;;;;;;3.28;1.92;;;23.60;22.60;;;22.96;19.97;98825.84;5027274;28;20046;-48
2021/03/30 14:01:59;;;;;;;3.95;3.03;;;23.70;24.60;;;23.07;19.54;98827.13;5025252;28;20045;-46
2021/03/30 14:04:27;;;;;;;4.18;2.35;;;23.80;23.80;;;23.13;18.61;98823.53;5041309;28;20084;-47
2021/03/30 14:06:54;;;;;;;4.05;2.90;;;23.90;23.10;;;23.16;19.00;98814.94;5027291;28;20053;-52
2021/03/30 14:09:23;;;;;;;5.13;2.55;;;23.90;23.40;;;23.23;19.90;98819.53;5027243;28;20057;-50
2021/03/30 14:14:23;;;;;;;4.47;2.70;;;24.00;23.50;;;23.39;18.68;98813.63;5026760;28;20064;-48
2021/03/30 14:16:56;;;;;;;4.78;3.22;;;24.10;23.00;;;23.35;17.53;98809.66;5027030;28;20212;-48
2021/03/30 14:19:42;;;;;;;;;;;24.00;22.10;;;23.27;18.28;98797.16;5026329;28;20295;-49
2021/03/30 14:22:16;;;;;;;3.25;2.60;;;23.80;20.90;;;23.32;18.92;98799.22;5027193;28;19929;-53
2021/03/30 14:25:06;;;;;;;6.85;2.92;;;23.80;23.70;;;23.41;19.08;98797.94;5026706;28;20041;-47
2021/03/30 14:27:37;;;;;;;4.22;2.65;;;24.00;23.90;;;23.52;19.39;98791.81;5026148;28;20068;-49
2021/03/30 14:30:24;;;;;;;5.03;2.78;;;24.10;24.20;;;23.63;19.49;98794.88;5023875;28;20071;-46
2021/03/30 14:32:52;;;;;;;3.67;2.67;;;24.30;24.10;;;23.70;20.38;98790.25;5027108;28;20053;-50
2021/03/30 14:35:19;;;;;;;3.72;2.90;;;24.40;24.70;;;23.77;19.27;98783.72;5027019;28;20053;-49
2021/03/30 14:37:46;;;;;;;5.88;3.53;;;24.50;23.90;;;23.89;19.99;98783.88;5027009;28;20053;-48
2021/03/30 14:40:24;;;;;;;6.57;2.72;;;24.60;24.70;;;23.98;20.42;98773.56;5025512;28;20063;-50
2021/03/30 14:42:56;;;;;;;5.47;2.65;;;24.70;24.90;;;24.07;20.65;98774.97;5025856;28;20061;-45
2021/03/30 14:52:00;;;;;;;2.75;2.38;;;24.90;25.30;;;24.30;18.30;98755.31;5024177;28;20137;-50
2021/03/30 14:54:32;;;;;;;4.47;2.75;;;24.90;22.90;;;24.31;17.48;98762.44;5023406;28;20057;-48
2021/03/30 14:57:07;;;;;;;5.43;2.47;;;24.90;22.40;;;24.41;19.79;98758.34;5025309;28;20393;-48
2021/03/30 14:59:53;;;;;;;3.63;2.22;;;25.00;24.60;;;24.45;19.02;98752.25;5023907;28;20045;-49
2021/03/30 15:04:50;;;;;;;2.78;2.45;;;25.00;23.20;;;24.55;18.70;98746.31;5024091;28;20068;-48
2021/03/30 15:07:18;;;;;;;7.32;2.90;;;25.10;23.30;;;24.59;16.71;98750.25;5022443;28;20060;-50
2021/03/30 15:09:46;;;;;;;4.93;2.90;;;25.10;21.70;;;24.61;16.56;98742.69;5024940;28;20064;-47
2021/03/30 15:12:15;;;;;;;3.72;2.50;;;25.20;21.50;;;24.70;17.19;98740.53;5024921;28;20525;-50
2021/03/30 15:14:43;;;;;;;7.70;3.00;;;25.20;21.90;;;24.80;17.22;98740.00;5024019;28;20069;-49
2021/03/30 15:17:11;;;;;;;2.85;2.40;;;25.30;22.00;;;24.90;19.07;98740.28;5023573;28;20053;-50
2021/03/30 15:19:40;;;;;;;3.78;2.70;;;25.50;23.90;;;24.93;17.56;98737.94;5023222;28;20071;-49
2021/03/30 15:22:08;;;;;;;6.13;2.55;;;25.50;22.30;;;24.94;16.64;98736.06;5023410;28;20053;-47
2021/03/30 15:24:36;;;;;;;2.80;2.35;;;25.50;21.40;;;24.98;18.02;98730.97;5025715;28;20224;-51
2021/03/30 15:27:24;;;;;;;5.07;3.28;;;25.50;22.60;;;25.04;17.08;98738.25;5023963;28;20057;-49
2021/03/30 15:29:57;;;;;;;5.45;4.22;;;25.50;21.80;;;25.06;16.91;98723.31;5024320;28;20060;-47
2021/03/30 15:32:27;;;;;;;4.30;2.92;;;25.60;22.20;;;25.10;16.70;98729.16;5023220;28;20381;-48
2021/03/30 15:34:56;;;;;;;3.55;2.58;;;25.50;21.70;;;25.12;16.29;98725.13;5025554;28;20068;-49
2021/03/30 15:37:26;;;;;;;8.35;2.60;;;25.50;21.10;;;25.12;16.57;98718.84;5024939;28;20049;-48
2021/03/30 15:39:58;;;;;;;3.30;2.40;;;25.50;21.50;;;25.17;18.26;98719.00;5022661;28;20049;-50
2021/03/30 15:42:26;;;;;;;3.33;2.67;;;25.60;22.80;;;25.22;17.07;98718.31;5022832;28;20069;-46
2021/03/30 15:45:10;;;;;;;4.38;2.90;;;25.70;21.80;;;25.27;16.74;98726.66;5023288;28;20051;-49
2021/03/30 15:47:38;;;;;;;5.75;3.10;;;25.70;21.80;;;25.29;16.63;98714.47;5023994;28;20071;-48
2021/03/30 15:50:12;;;;;;;5.10;3.05;;;25.70;21.50;;;25.30;16.90;98713.41;5023398;28;20057;-50
2021/03/30 15:52:42;;;;;;;4.80;2.60;;;25.80;21.10;;;25.33;18.14;98717.56;5023683;28;20049;-52
2021/03/30 15:55:13;;;;;;;7.97;5.78;;;25.80;23.00;;;25.40;17.37;98712.84;5025343;28;20042;-48
2021/03/30 15:57:46;;;;;;;8.93;6.10;;;25.80;22.30;;;25.44;17.09;98705.88;5024015;28;20369;-48
2021/03/30 16:00:17;;;;;;;16.65;12.38;;;25.80;22.10;;;25.46;17.54;98705.66;5006756;28;20049;-48
2021/03/30 16:02:47;;;;;;;9.98;7.03;;;25.90;22.50;;;25.42;18.11;98705.28;5023667;28;20061;-47
2021/03/30 16:05:27;;;;;;;12.32;9.20;;;25.90;23.00;;;25.46;18.56;98713.81;5024245;28;20238;-50
2021/03/30 16:07:55;;;;;;;14.23;10.75;;;25.90;23.20;;;25.43;18.23;98703.38;5026402;28;20061;-51
2021/03/30 16:10:42;;;;;;;34.53;30.88;;;25.80;23.10;;;25.38;18.00;98701.34;5025104;28;20374;-52
2021/03/30 16:13:10;;;;;;;21.27;17.17;;;25.80;22.80;;;25.34;17.67;98703.72;5023965;28;20052;-46
2021/03/30 16:15:38;;;;;;;34.38;23.50;;;25.70;23.00;;;25.31;18.25;98693.25;5038718;28;20582;-52
2021/03/30 16:18:06;;;;;;;27.27;19.27;;;25.60;23.40;;;25.28;18.31;98693.72;5022815;28;20365;-49
2021/03/30 16:20:34;;;;;;;23.27;18.15;;;25.50;23.40;;;25.23;18.65;98690.84;5022703;28;20057;-49
2021/03/30 16:23:02;;;;;;;9.60;6.97;;;25.40;23.70;;;25.17;18.45;98689.03;5025509;28;20049;-49
2021/03/30 16:25:31;;;;;;;7.60;4.00;;;25.30;23.70;;;25.10;18.72;98694.56;5026070;28;20045;-47
2021/03/30 16:27:59;;;;;;;5.47;3.85;;;25.30;23.90;;;25.06;18.60;98689.81;5022818;28;20258;-46
2021/03/30 16:30:27;;;;;;;5.90;3.60;;;25.20;24.10;;;24.97;18.94;98689.31;5026058;28;20045;-48
2021/03/30 16:32:55;;;;;;;5.80;3.80;;;25.00;24.20;;;24.87;19.02;98684.41;5029054;28;20056;-49
2021/03/30 16:35:22;;;;;;;6.05;3.55;;;24.80;24.40;;;24.81;19.13;98692.63;5027344;28;20060;-47
2021/03/30 16:37:50;;;;;;;9.65;4.00;;;24.80;24.50;;;24.74;19.14;98690.81;5029929;28;20361;-49
2021/03/30 16:40:17;;;;;;;5.60;4.13;;;24.70;24.60;;;24.70;19.34;98694.25;5028428;28;20073;-47
2021/03/30 16:42:45;;;;;;;7.60;4.00;;;24.70;24.90;;;24.63;19.38;98686.13;5028242;28;20216;-48
2021/03/30 16:45:13;;;;;;;7.47;4.53;;;24.50;24.70;;;24.51;19.33;98691.50;5027848;28;20057;-48
2021/03/30 16:47:40;;;;;;;8.13;4.18;;;24.40;24.80;;;24.43;19.42;98685.47;5028334;28;20076;-49
2021/03/30 16:50:17;;;;;;;12.52;4.38;;;24.30;25.00;;;24.34;19.68;98687.69;5028358;28;20057;-53
2021/03/30 16:52:44;;;;;;;6.20;4.80;;;24.20;25.10;;;24.21;19.77;98685.91;5026924;28;20045;-52
2021/03/30 16:55:13;;;;;;;9.20;5.32;;;24.00;25.20;;;24.10;20.26;98690.22;5027565;28;20599;-50
2021/03/30 16:57:42;;;;;;;5.95;3.53;;;23.80;25.60;;;23.98;20.21;98689.25;5026191;28;20042;-49
2021/03/30 17:00:10;;;;;;;6.80;4.72;;;23.70;25.60;;;23.83;20.40;98684.16;5025907;28;20355;-48
2021/03/30 17:02:38;;;;;;;6.07;4.95;;;23.60;25.70;;;23.67;20.32;98690.97;5027847;28;20095;-48
2021/03/30 17:05:07;;;;;;;7.35;4.15;;;23.40;25.60;;;23.52;20.64;98683.09;5026164;28;20393;-47
2021/03/30 17:07:34;;;;;;;11.50;4.50;;;23.20;25.90;;;23.35;20.62;98690.13;5025315;28;20045;-50
2021/03/30 17:10:05;;;;;;;12.10;6.13;;;23.10;26.00;;;23.21;21.30;98686.66;5025477;28;20269;-48
2021/03/30 17:12:32;;;;;;;9.35;6.20;;;22.90;26.30;;;23.08;21.14;98689.44;5024254;28;20232;-50
2021/03/30 17:15:00;;;;;;;7.63;5.30;;;22.80;26.50;;;22.95;21.17;98684.84;5026465;28;20236;-51
2021/03/30 17:17:28;;;;;;;7.43;4.80;;;22.70;26.70;;;22.81;21.79;98687.63;5027611;28;20053;-50
2021/03/30 17:19:55;;;;;;;7.55;5.05;;;22.50;27.50;;;22.68;21.71;98687.69;5026499;28;20053;-52
2021/03/30 17:22:23;;;;;;;7.53;3.92;;;22.40;26.80;;;22.57;21.10;98681.03;5025780;28;20071;-51
2021/03/30 17:24:50;;;;;;;7.75;4.72;;;22.20;26.50;;;22.45;21.67;98680.03;5027030;28;20145;-53
2021/03/30 17:27:17;;;;;;;6.15;3.42;;;22.10;27.10;;;22.33;21.60;98684.44;5023847;28;20065;-48
2021/03/30 17:29:46;;;;;;;5.80;4.05;;;22.00;27.10;;;22.23;22.51;98682.13;5026458;28;20044;-50
2021/03/30 17:32:13;;;;;;;8.52;3.92;;;21.80;27.50;;;22.10;22.90;98680.28;5025293;28;20049;-47
2021/03/30 17:34:41;;;;;;;7.72;4.22;;;21.70;28.00;;;21.98;22.91;98677.38;5026282;28;20053;-47
2021/03/30 17:37:09;;;;;;;10.98;4.18;;;21.60;28.00;;;21.87;22.84;98678.00;5027439;28;20250;-48
2021/03/30 17:39:37;;;;;;;5.40;4.00;;;21.50;27.90;;;21.78;22.96;98673.81;5025835;28;20251;-50
2021/03/30 17:42:06;;;;;;;7.95;4.13;;;21.30;28.20;;;21.67;24.02;98671.72;5025505;28;20067;-46
2021/03/30 17:44:35;;;;;;;8.25;4.03;;;21.30;29.00;;;21.55;23.39;98668.81;5025738;28;20075;-49
2021/03/30 17:47:03;;;;;;;6.78;4.57;;;21.10;28.60;;;21.42;23.46;98667.72;5027571;28;20096;-48
2021/03/30 17:49:32;;;;;;;7.97;4.47;;;21.00;28.60;;;21.32;23.66;98674.56;5025202;28;20258;-47
2021/03/30 17:52:00;;;;;;;9.43;4.03;;;20.80;28.80;;;21.20;24.00;98674.34;5024825;28;20367;-49
2021/03/30 17:54:27;;;;;;;11.70;4.47;;;20.70;29.20;;;21.08;24.47;98671.41;5026129;28;20057;-48
2021/03/30 17:56:54;;;;;;;8.52;4.53;;;20.60;29.50;;;20.96;24.47;98673.03;5025329;28;20056;-51
2021/03/30 17:59:22;;;;;;;11.23;5.93;;;20.40;29.50;;;20.84;25.01;98665.50;5025799;28;20049;-50
2021/03/30 18:01:49;;;;;;;8.45;5.60;;;20.30;29.90;;;20.73;24.99;98671.50;5025574;28;20071;-52
2021/03/30 18:04:16;;;;;;;10.25;6.65;;;20.20;30.00;;;20.60;25.11;98660.59;5027109;28;20321;-52
2021/03/30 18:06:44;;;;;;;13.40;6.53;;;20.10;30.30;;;20.49;25.19;98672.81;5026026;28;20423;-47
2021/03/30 18:09:11;;;;;;;14.20;6.43;;;19.90;30.50;;;20.38;25.75;98671.50;5023984;28;20055;-51